sensor_id;sensor_type;location;lat;lon;timestamp;temperature;humidity
68439;SHT31;55421;51.600;5.718;2023-07-29T00:00:01;20.56;78.70
68439;SHT31;55421;51.600;5.718;2023-07-29T00:02:27;20.56;78.69
68439;SHT31;55421;51.600;5.718;2023-07-29T00:04:57;20.55;78.60
68439;SHT31;55421;51.600;5.718;2023-07-29T00:07:23;20.51;78.61
68439;SHT31;55421;51.600;5.718;2023-07-29T00:09:49;20.47;78.60
68439;SHT31;55421;51.600;5.718;2023-07-29T00:12:16;20.42;78.69
68439;SHT31;55421;51.600;5.718;2023-07-29T00:14:42;20.37;78.78
68439;SHT31;55421;51.600;5.718;2023-07-29T00:17:09;20.35;78.80
68439;SHT31;55421;51.600;5.718;2023-07-29T00:19:35;20.34;78.80
68439;SHT31;55421;51.600;5.718;2023-07-29T00:22:02;20.32;78.83
68439;SHT31;55421;51.600;5.718;2023-07-29T00:24:30;20.30;78.93
68439;SHT31;55421;51.600;5.718;2023-07-29T00:26:56;20.28;79.06
68439;SHT31;55421;51.600;5.718;2023-07-29T00:29:23;20.27;79.20
68439;SHT31;55421;51.600;5.718;2023-07-29T00:31:49;20.27;79.30
68439;SHT31;55421;51.600;5.718;2023-07-29T00:34:16;20.29;79.31
68439;SHT31;55421;51.600;5.718;2023-07-29T00:36:45;20.31;79.37
68439;SHT31;55421;51.600;5.718;2023-07-29T00:39:12;20.34;79.48
68439;SHT31;55421;51.600;5.718;2023-07-29T00:41:39;20.38;79.52
68439;SHT31;55421;51.600;5.718;2023-07-29T00:44:06;20.41;79.56
68439;SHT31;55421;51.600;5.718;2023-07-29T00:46:33;20.43;79.60
68439;SHT31;55421;51.600;5.718;2023-07-29T00:49:01;20.44;79.60
68439;SHT31;55421;51.600;5.718;2023-07-29T00:51:28;20.45;79.60
68439;SHT31;55421;51.600;5.718;2023-07-29T00:53:55;20.45;79.61
68439;SHT31;55421;51.600;5.718;2023-07-29T00:56:21;20.44;79.69
68439;SHT31;55421;51.600;5.718;2023-07-29T00:58:48;20.45;79.73
68439;SHT31;55421;51.600;5.718;2023-07-29T01:01:16;20.47;79.70
68439;SHT31;55421;51.600;5.718;2023-07-29T01:03:43;20.46;79.68
68439;SHT31;55421;51.600;5.718;2023-07-29T01:09:36;20.36;79.69
68439;SHT31;55421;51.600;5.718;2023-07-29T01:12:46;20.31;79.70
68439;SHT31;55421;51.600;5.718;2023-07-29T01:15:24;20.29;79.70
68439;SHT31;55421;51.600;5.718;2023-07-29T01:18:18;20.29;79.80
68439;SHT31;55421;51.600;5.718;2023-07-29T01:20:51;20.30;79.75
68439;SHT31;55421;51.600;5.718;2023-07-29T01:23:23;20.27;79.85
68439;SHT31;55421;51.600;5.718;2023-07-29T01:25:51;20.27;79.90
68439;SHT31;55421;51.600;5.718;2023-07-29T01:28:18;20.26;79.94
68439;SHT31;55421;51.600;5.718;2023-07-29T01:30:44;20.26;79.90
68439;SHT31;55421;51.600;5.718;2023-07-29T01:35:49;20.25;79.90
68439;SHT31;55421;51.600;5.718;2023-07-29T01:38:30;20.24;79.89
68439;SHT31;55421;51.600;5.718;2023-07-29T01:41:02;20.22;79.87
68439;SHT31;55421;51.600;5.718;2023-07-29T01:43:30;20.19;79.82
68439;SHT31;55421;51.600;5.718;2023-07-29T01:45:58;20.19;79.80
68439;SHT31;55421;51.600;5.718;2023-07-29T01:50:50;20.18;79.73
68439;SHT31;55421;51.600;5.718;2023-07-29T01:53:17;20.17;79.82
68439;SHT31;55421;51.600;5.718;2023-07-29T01:55:43;20.17;80.00
68439;SHT31;55421;51.600;5.718;2023-07-29T01:58:11;20.18;80.00
68439;SHT31;55421;51.600;5.718;2023-07-29T02:00:37;20.18;80.02
68439;SHT31;55421;51.600;5.718;2023-07-29T02:03:04;20.20;80.00
68439;SHT31;55421;51.600;5.718;2023-07-29T02:05:30;20.22;80.00
68439;SHT31;55421;51.600;5.718;2023-07-29T02:07:57;20.25;80.04
68439;SHT31;55421;51.600;5.718;2023-07-29T02:10:23;20.28;80.10
68439;SHT31;55421;51.600;5.718;2023-07-29T02:12:50;20.30;80.10
68439;SHT31;55421;51.600;5.718;2023-07-29T02:15:16;20.29;80.13
68439;SHT31;55421;51.600;5.718;2023-07-29T02:17:43;20.26;80.19
68439;SHT31;55421;51.600;5.718;2023-07-29T02:20:09;20.23;80.22
68439;SHT31;55421;51.600;5.718;2023-07-29T02:22:36;20.21;80.31
68439;SHT31;55421;51.600;5.718;2023-07-29T02:25:03;20.19;80.33
68439;SHT31;55421;51.600;5.718;2023-07-29T02:27:31;20.14;80.33
68439;SHT31;55421;51.600;5.718;2023-07-29T02:29:58;20.07;80.33
68439;SHT31;55421;51.600;5.718;2023-07-29T02:32:24;19.98;80.40
68439;SHT31;55421;51.600;5.718;2023-07-29T02:34:51;19.91;80.49
68439;SHT31;55421;51.600;5.718;2023-07-29T02:37:17;19.88;80.64
68439;SHT31;55421;51.600;5.718;2023-07-29T02:39:44;19.89;80.70
68439;SHT31;55421;51.600;5.718;2023-07-29T02:42:11;19.90;80.66
68439;SHT31;55421;51.600;5.718;2023-07-29T02:44:38;19.93;80.69
68439;SHT31;55421;51.600;5.718;2023-07-29T02:47:06;19.95;80.68
68439;SHT31;55421;51.600;5.718;2023-07-29T02:49:33;19.98;80.65
68439;SHT31;55421;51.600;5.718;2023-07-29T02:51:59;20.00;80.57
68439;SHT31;55421;51.600;5.718;2023-07-29T02:54:25;19.98;80.48
68439;SHT31;55421;51.600;5.718;2023-07-29T02:56:52;19.97;80.36
68439;SHT31;55421;51.600;5.718;2023-07-29T02:59:19;19.93;80.19
68439;SHT31;55421;51.600;5.718;2023-07-29T03:01:46;19.91;79.94
68439;SHT31;55421;51.600;5.718;2023-07-29T03:04:12;19.87;79.89
68439;SHT31;55421;51.600;5.718;2023-07-29T03:06:39;19.86;79.86
68439;SHT31;55421;51.600;5.718;2023-07-29T03:09:05;19.83;79.72
68439;SHT31;55421;51.600;5.718;2023-07-29T03:11:32;19.78;79.53
68439;SHT31;55421;51.600;5.718;2023-07-29T03:13:58;19.77;79.48
68439;SHT31;55421;51.600;5.718;2023-07-29T03:16:25;19.72;79.31
68439;SHT31;55421;51.600;5.718;2023-07-29T03:18:51;19.68;79.17
68439;SHT31;55421;51.600;5.718;2023-07-29T03:21:18;19.65;79.06
68439;SHT31;55421;51.600;5.718;2023-07-29T03:23:44;19.62;79.00
68439;SHT31;55421;51.600;5.718;2023-07-29T03:26:10;19.62;78.93
68439;SHT31;55421;51.600;5.718;2023-07-29T03:28:38;19.60;78.89
68439;SHT31;55421;51.600;5.718;2023-07-29T03:31:08;19.59;78.80
68439;SHT31;55421;51.600;5.718;2023-07-29T03:33:35;19.56;78.81
68439;SHT31;55421;51.600;5.718;2023-07-29T03:36:02;19.53;78.82
68439;SHT31;55421;51.600;5.718;2023-07-29T03:38:28;19.51;78.80
68439;SHT31;55421;51.600;5.718;2023-07-29T03:40:55;19.50;78.71
68439;SHT31;55421;51.600;5.718;2023-07-29T03:43:23;19.46;78.58
68439;SHT31;55421;51.600;5.718;2023-07-29T03:45:50;19.40;78.48
68439;SHT31;55421;51.600;5.718;2023-07-29T03:48:16;19.34;78.47
68439;SHT31;55421;51.600;5.718;2023-07-29T03:50:42;19.29;78.39
68439;SHT31;55421;51.600;5.718;2023-07-29T03:53:09;19.23;78.25
68439;SHT31;55421;51.600;5.718;2023-07-29T03:55:36;19.17;78.30
68439;SHT31;55421;51.600;5.718;2023-07-29T03:58:02;19.13;78.26
68439;SHT31;55421;51.600;5.718;2023-07-29T04:00:28;19.10;78.22
68439;SHT31;55421;51.600;5.718;2023-07-29T04:02:55;19.08;78.20
68439;SHT31;55421;51.600;5.718;2023-07-29T04:05:21;19.06;78.20
68439;SHT31;55421;51.600;5.718;2023-07-29T04:07:48;19.03;78.17
68439;SHT31;55421;51.600;5.718;2023-07-29T04:10:14;19.02;78.12
68439;SHT31;55421;51.600;5.718;2023-07-29T04:12:41;18.98;78.10
68439;SHT31;55421;51.600;5.718;2023-07-29T04:15:07;18.94;78.00
68439;SHT31;55421;51.600;5.718;2023-07-29T04:17:34;18.92;78.02
68439;SHT31;55421;51.600;5.718;2023-07-29T04:20:01;18.91;77.99
68439;SHT31;55421;51.600;5.718;2023-07-29T04:22:27;18.90;77.97
68439;SHT31;55421;51.600;5.718;2023-07-29T04:24:54;18.89;77.91
68439;SHT31;55421;51.600;5.718;2023-07-29T04:27:20;18.88;77.93
68439;SHT31;55421;51.600;5.718;2023-07-29T04:29:47;18.88;77.94
68439;SHT31;55421;51.600;5.718;2023-07-29T04:32:13;18.91;77.85
68439;SHT31;55421;51.600;5.718;2023-07-29T04:34:40;18.94;77.79
68439;SHT31;55421;51.600;5.718;2023-07-29T04:37:06;18.97;77.73
68439;SHT31;55421;51.600;5.718;2023-07-29T04:39:33;18.97;77.60
68439;SHT31;55421;51.600;5.718;2023-07-29T04:41:59;18.97;77.60
68439;SHT31;55421;51.600;5.718;2023-07-29T04:44:27;18.95;77.49
68439;SHT31;55421;51.600;5.718;2023-07-29T04:46:53;18.91;77.52
68439;SHT31;55421;51.600;5.718;2023-07-29T04:49:19;18.89;77.52
68439;SHT31;55421;51.600;5.718;2023-07-29T04:51:46;18.90;77.56
68439;SHT31;55421;51.600;5.718;2023-07-29T04:54:12;18.93;77.54
68439;SHT31;55421;51.600;5.718;2023-07-29T04:56:39;18.96;77.51
68439;SHT31;55421;51.600;5.718;2023-07-29T04:59:05;19.00;77.54
68439;SHT31;55421;51.600;5.718;2023-07-29T05:01:34;19.03;77.52
68439;SHT31;55421;51.600;5.718;2023-07-29T05:04:01;19.05;77.39
68439;SHT31;55421;51.600;5.718;2023-07-29T05:06:27;19.05;77.42
68439;SHT31;55421;51.600;5.718;2023-07-29T05:08:56;19.05;77.37
68439;SHT31;55421;51.600;5.718;2023-07-29T05:11:24;19.06;77.39
68439;SHT31;55421;51.600;5.718;2023-07-29T05:13:51;19.09;77.35
68439;SHT31;55421;51.600;5.718;2023-07-29T05:16:17;19.10;77.36
68439;SHT31;55421;51.600;5.718;2023-07-29T05:18:45;19.13;77.39
68439;SHT31;55421;51.600;5.718;2023-07-29T05:21:11;19.13;77.33
68439;SHT31;55421;51.600;5.718;2023-07-29T05:23:40;19.12;77.28
68439;SHT31;55421;51.600;5.718;2023-07-29T05:26:06;19.12;77.23
68439;SHT31;55421;51.600;5.718;2023-07-29T05:28:33;19.12;77.19
68439;SHT31;55421;51.600;5.718;2023-07-29T05:31:00;19.09;77.18
68439;SHT31;55421;51.600;5.718;2023-07-29T05:33:28;19.10;77.20
68439;SHT31;55421;51.600;5.718;2023-07-29T05:35:54;19.08;77.16
68439;SHT31;55421;51.600;5.718;2023-07-29T05:38:21;19.06;77.19
68439;SHT31;55421;51.600;5.718;2023-07-29T05:40:50;19.06;77.21
68439;SHT31;55421;51.600;5.718;2023-07-29T05:43:17;19.08;77.21
68439;SHT31;55421;51.600;5.718;2023-07-29T05:45:43;19.10;77.09
68439;SHT31;55421;51.600;5.718;2023-07-29T05:48:10;19.09;76.94
68439;SHT31;55421;51.600;5.718;2023-07-29T05:50:36;19.09;76.90
68439;SHT31;55421;51.600;5.718;2023-07-29T05:53:02;19.11;76.94
68439;SHT31;55421;51.600;5.718;2023-07-29T05:55:29;19.14;76.88
68439;SHT31;55421;51.600;5.718;2023-07-29T05:57:55;19.17;76.82
68439;SHT31;55421;51.600;5.718;2023-07-29T06:00:23;19.22;76.82
68439;SHT31;55421;51.600;5.718;2023-07-29T06:02:50;19.27;76.74
68439;SHT31;55421;51.600;5.718;2023-07-29T06:05:16;19.32;76.60
68439;SHT31;55421;51.600;5.718;2023-07-29T06:07:43;19.40;76.53
68439;SHT31;55421;51.600;5.718;2023-07-29T06:10:14;19.59;76.58
68439;SHT31;55421;51.600;5.718;2023-07-29T06:12:45;19.80;76.38
68439;SHT31;55421;51.600;5.718;2023-07-29T06:15:12;20.02;76.05
68439;SHT31;55421;51.600;5.718;2023-07-29T06:17:39;20.21;75.70
68439;SHT31;55421;51.600;5.718;2023-07-29T06:20:07;20.29;75.11
68439;SHT31;55421;51.600;5.718;2023-07-29T06:22:34;20.41;74.84
68439;SHT31;55421;51.600;5.718;2023-07-29T06:25:00;20.53;74.59
68439;SHT31;55421;51.600;5.718;2023-07-29T06:27:27;20.61;74.30
68439;SHT31;55421;51.600;5.718;2023-07-29T06:29:53;20.60;74.02
68439;SHT31;55421;51.600;5.718;2023-07-29T06:32:20;20.57;73.81
68439;SHT31;55421;51.600;5.718;2023-07-29T06:34:46;20.51;73.82
68439;SHT31;55421;51.600;5.718;2023-07-29T06:37:12;20.48;73.77
68439;SHT31;55421;51.600;5.718;2023-07-29T06:39:39;20.52;73.84
68439;SHT31;55421;51.600;5.718;2023-07-29T06:42:05;20.70;73.90
68439;SHT31;55421;51.600;5.718;2023-07-29T06:44:32;20.82;73.81
68439;SHT31;55421;51.600;5.718;2023-07-29T06:46:59;20.81;73.51
68439;SHT31;55421;51.600;5.718;2023-07-29T06:49:25;20.80;73.21
68439;SHT31;55421;51.600;5.718;2023-07-29T06:51:52;20.81;73.13
68439;SHT31;55421;51.600;5.718;2023-07-29T06:54:18;20.89;72.93
68439;SHT31;55421;51.600;5.718;2023-07-29T06:56:45;20.93;72.93
68439;SHT31;55421;51.600;5.718;2023-07-29T06:59:11;21.00;72.97
68439;SHT31;55421;51.600;5.718;2023-07-29T07:01:37;20.99;72.95
68439;SHT31;55421;51.600;5.718;2023-07-29T07:04:04;20.99;72.57
68439;SHT31;55421;51.600;5.718;2023-07-29T07:06:30;20.98;72.52
68439;SHT31;55421;51.600;5.718;2023-07-29T07:08:57;21.04;72.51
68439;SHT31;55421;51.600;5.718;2023-07-29T07:11:23;21.11;72.49
68439;SHT31;55421;51.600;5.718;2023-07-29T07:13:50;21.24;72.51
68439;SHT31;55421;51.600;5.718;2023-07-29T07:16:16;21.37;72.37
68439;SHT31;55421;51.600;5.718;2023-07-29T07:18:43;21.50;72.30
68439;SHT31;55421;51.600;5.718;2023-07-29T07:21:10;21.68;72.34
68439;SHT31;55421;51.600;5.718;2023-07-29T07:23:36;21.83;71.80
68439;SHT31;55421;51.600;5.718;2023-07-29T07:26:03;21.77;71.52
68439;SHT31;55421;51.600;5.718;2023-07-29T07:28:29;21.68;71.30
68439;SHT31;55421;51.600;5.718;2023-07-29T07:30:56;21.58;71.32
68439;SHT31;55421;51.600;5.718;2023-07-29T07:33:22;21.47;71.50
68439;SHT31;55421;51.600;5.718;2023-07-29T07:35:49;21.37;71.63
68439;SHT31;55421;51.600;5.718;2023-07-29T07:38:15;21.33;71.82
68439;SHT31;55421;51.600;5.718;2023-07-29T07:40:42;21.28;71.67
68439;SHT31;55421;51.600;5.718;2023-07-29T07:43:19;21.26;71.99
68439;SHT31;55421;51.600;5.718;2023-07-29T07:45:45;21.29;72.05
68439;SHT31;55421;51.600;5.718;2023-07-29T07:48:12;21.32;71.95
68439;SHT31;55421;51.600;5.718;2023-07-29T07:50:39;21.35;71.94
68439;SHT31;55421;51.600;5.718;2023-07-29T07:53:06;21.37;72.07
68439;SHT31;55421;51.600;5.718;2023-07-29T07:55:32;21.44;72.03
68439;SHT31;55421;51.600;5.718;2023-07-29T07:57:58;21.49;72.02
68439;SHT31;55421;51.600;5.718;2023-07-29T08:00:25;21.51;71.97
68439;SHT31;55421;51.600;5.718;2023-07-29T08:02:51;21.52;72.20
68439;SHT31;55421;51.600;5.718;2023-07-29T08:05:18;21.57;72.03
68439;SHT31;55421;51.600;5.718;2023-07-29T08:07:45;21.58;71.81
68439;SHT31;55421;51.600;5.718;2023-07-29T08:10:11;21.57;71.89
68439;SHT31;55421;51.600;5.718;2023-07-29T08:12:38;21.58;71.87
68439;SHT31;55421;51.600;5.718;2023-07-29T08:15:04;21.60;71.41
68439;SHT31;55421;51.600;5.718;2023-07-29T08:17:31;21.65;71.16
68439;SHT31;55421;51.600;5.718;2023-07-29T08:19:58;21.74;70.81
68439;SHT31;55421;51.600;5.718;2023-07-29T08:22:24;21.81;70.50
68439;SHT31;55421;51.600;5.718;2023-07-29T08:24:51;21.87;70.44
68439;SHT31;55421;51.600;5.718;2023-07-29T08:27:17;21.92;70.38
68439;SHT31;55421;51.600;5.718;2023-07-29T08:29:44;22.12;70.01
68439;SHT31;55421;51.600;5.718;2023-07-29T08:32:10;22.21;69.97
68439;SHT31;55421;51.600;5.718;2023-07-29T08:34:36;22.32;69.96
68439;SHT31;55421;51.600;5.718;2023-07-29T08:37:03;22.42;69.34
68439;SHT31;55421;51.600;5.718;2023-07-29T08:39:29;22.43;68.90
68439;SHT31;55421;51.600;5.718;2023-07-29T08:44:35;22.32;68.66
68439;SHT31;55421;51.600;5.718;2023-07-29T08:47:09;22.33;68.93
68439;SHT31;55421;51.600;5.718;2023-07-29T08:49:36;22.32;68.81
68439;SHT31;55421;51.600;5.718;2023-07-29T08:52:04;22.29;68.92
68439;SHT31;55421;51.600;5.718;2023-07-29T08:54:32;22.27;69.19
68439;SHT31;55421;51.600;5.718;2023-07-29T08:56:59;22.28;69.15
68439;SHT31;55421;51.600;5.718;2023-07-29T08:59:26;22.32;69.30
68439;SHT31;55421;51.600;5.718;2023-07-29T09:01:55;22.38;69.07
68439;SHT31;55421;51.600;5.718;2023-07-29T09:04:23;22.41;68.79
68439;SHT31;55421;51.600;5.718;2023-07-29T09:06:51;22.45;69.03
68439;SHT31;55421;51.600;5.718;2023-07-29T09:09:20;22.57;69.11
68439;SHT31;55421;51.600;5.718;2023-07-29T09:11:48;22.70;68.72
68439;SHT31;55421;51.600;5.718;2023-07-29T09:14:14;22.82;68.77
68439;SHT31;55421;51.600;5.718;2023-07-29T09:16:41;22.95;68.43
68439;SHT31;55421;51.600;5.718;2023-07-29T09:19:08;23.00;67.79
68439;SHT31;55421;51.600;5.718;2023-07-29T09:21:34;22.98;67.32
68439;SHT31;55421;51.600;5.718;2023-07-29T09:24:06;23.01;67.33
68439;SHT31;55421;51.600;5.718;2023-07-29T09:26:34;23.04;66.72
68439;SHT31;55421;51.600;5.718;2023-07-29T09:29:01;23.04;66.52
68439;SHT31;55421;51.600;5.718;2023-07-29T09:31:28;23.04;66.35
68439;SHT31;55421;51.600;5.718;2023-07-29T09:33:56;23.06;66.52
68439;SHT31;55421;51.600;5.718;2023-07-29T09:36:28;23.20;66.78
68439;SHT31;55421;51.600;5.718;2023-07-29T09:38:57;23.32;66.26
68439;SHT31;55421;51.600;5.718;2023-07-29T09:41:25;23.44;65.84
68439;SHT31;55421;51.600;5.718;2023-07-29T09:43:57;23.60;65.66
68439;SHT31;55421;51.600;5.718;2023-07-29T09:46:33;23.74;65.40
68439;SHT31;55421;51.600;5.718;2023-07-29T09:49:02;23.76;65.27
68439;SHT31;55421;51.600;5.718;2023-07-29T09:51:31;23.82;65.12
68439;SHT31;55421;51.600;5.718;2023-07-29T09:53:58;23.94;64.80
68439;SHT31;55421;51.600;5.718;2023-07-29T09:56:28;24.00;64.27
68439;SHT31;55421;51.600;5.718;2023-07-29T09:58:55;24.04;63.94
68439;SHT31;55421;51.600;5.718;2023-07-29T10:01:23;24.03;63.61
68439;SHT31;55421;51.600;5.718;2023-07-29T10:03:50;23.96;63.93
68439;SHT31;55421;51.600;5.718;2023-07-29T10:06:18;23.81;63.89
68439;SHT31;55421;51.600;5.718;2023-07-29T10:08:45;23.69;64.11
68439;SHT31;55421;51.600;5.718;2023-07-29T10:11:13;23.58;64.08
68439;SHT31;55421;51.600;5.718;2023-07-29T10:13:40;23.47;64.40
68439;SHT31;55421;51.600;5.718;2023-07-29T10:16:06;23.40;64.59
68439;SHT31;55421;51.600;5.718;2023-07-29T10:18:33;23.34;64.63
68439;SHT31;55421;51.600;5.718;2023-07-29T10:21:00;23.30;64.59
68439;SHT31;55421;51.600;5.718;2023-07-29T10:23:32;23.26;64.90
68439;SHT31;55421;51.600;5.718;2023-07-29T10:26:05;23.24;65.11
68439;SHT31;55421;51.600;5.718;2023-07-29T10:28:37;23.25;65.37
68439;SHT31;55421;51.600;5.718;2023-07-29T10:31:11;23.27;65.48
68439;SHT31;55421;51.600;5.718;2023-07-29T10:33:39;23.27;65.25
68439;SHT31;55421;51.600;5.718;2023-07-29T10:36:06;23.35;65.57
68439;SHT31;55421;51.600;5.718;2023-07-29T10:38:33;23.60;65.88
68439;SHT31;55421;51.600;5.718;2023-07-29T10:41:00;23.83;65.84
68439;SHT31;55421;51.600;5.718;2023-07-29T10:43:36;24.11;65.08
68439;SHT31;55421;51.600;5.718;2023-07-29T10:48:52;24.63;63.79
68439;SHT31;55421;51.600;5.718;2023-07-29T10:51:25;24.71;63.82
68439;SHT31;55421;51.600;5.718;2023-07-29T10:54:18;24.77;63.36
68439;SHT31;55421;51.600;5.718;2023-07-29T10:56:46;24.96;62.73
68439;SHT31;55421;51.600;5.718;2023-07-29T11:01:59;25.39;61.46
68439;SHT31;55421;51.600;5.718;2023-07-29T11:04:27;25.61;61.01
68439;SHT31;55421;51.600;5.718;2023-07-29T11:17:37;25.15;60.64
68439;SHT31;55421;51.600;5.718;2023-07-29T11:20:10;24.99;60.42
68439;SHT31;55421;51.600;5.718;2023-07-29T11:22:38;24.78;60.83
68439;SHT31;55421;51.600;5.718;2023-07-29T11:25:06;24.58;60.97
68439;SHT31;55421;51.600;5.718;2023-07-29T11:27:35;24.33;61.00
68439;SHT31;55421;51.600;5.718;2023-07-29T11:30:03;24.17;61.70
68439;SHT31;55421;51.600;5.718;2023-07-29T11:32:34;24.07;62.07
68439;SHT31;55421;51.600;5.718;2023-07-29T11:35:06;24.00;62.50
68439;SHT31;55421;51.600;5.718;2023-07-29T11:37:34;23.96;62.84
68439;SHT31;55421;51.600;5.718;2023-07-29T11:40:01;23.93;63.13
68439;SHT31;55421;51.600;5.718;2023-07-29T11:42:31;23.91;63.43
68439;SHT31;55421;51.600;5.718;2023-07-29T11:45:00;23.89;63.86
68439;SHT31;55421;51.600;5.718;2023-07-29T11:47:29;23.93;64.27
68439;SHT31;55421;51.600;5.718;2023-07-29T11:49:58;23.98;64.71
68439;SHT31;55421;51.600;5.718;2023-07-29T11:52:28;24.00;64.69
68439;SHT31;55421;51.600;5.718;2023-07-29T11:54:54;23.96;64.50
68439;SHT31;55421;51.600;5.718;2023-07-29T11:57:21;23.92;64.27
68439;SHT31;55421;51.600;5.718;2023-07-29T11:59:49;23.96;64.00
68439;SHT31;55421;51.600;5.718;2023-07-29T12:02:16;24.01;63.22
68439;SHT31;55421;51.600;5.718;2023-07-29T12:04:46;24.12;62.93
68439;SHT31;55421;51.600;5.718;2023-07-29T12:07:14;24.33;62.55
68439;SHT31;55421;51.600;5.718;2023-07-29T12:09:43;24.54;62.48
68439;SHT31;55421;51.600;5.718;2023-07-29T12:12:11;24.77;62.21
68439;SHT31;55421;51.600;5.718;2023-07-29T12:14:38;24.91;62.30
68439;SHT31;55421;51.600;5.718;2023-07-29T12:17:05;25.01;62.21
68439;SHT31;55421;51.600;5.718;2023-07-29T12:19:33;25.06;61.66
68439;SHT31;55421;51.600;5.718;2023-07-29T12:22:02;25.03;61.35
68439;SHT31;55421;51.600;5.718;2023-07-29T12:24:31;24.88;61.22
68439;SHT31;55421;51.600;5.718;2023-07-29T12:26:59;24.73;61.47
68439;SHT31;55421;51.600;5.718;2023-07-29T12:29:26;24.53;61.56
68439;SHT31;55421;51.600;5.718;2023-07-29T12:32:00;24.29;61.71
68439;SHT31;55421;51.600;5.718;2023-07-29T12:34:30;24.07;62.32
68439;SHT31;55421;51.600;5.718;2023-07-29T12:36:58;23.84;63.09
68439;SHT31;55421;51.600;5.718;2023-07-29T12:39:29;23.54;65.02
68439;SHT31;55421;51.600;5.718;2023-07-29T12:41:59;23.15;66.67
68439;SHT31;55421;51.600;5.718;2023-07-29T12:44:30;22.61;67.19
68439;SHT31;55421;51.600;5.718;2023-07-29T12:47:02;22.02;68.67
68439;SHT31;55421;51.600;5.718;2023-07-29T12:49:31;21.68;69.83
68439;SHT31;55421;51.600;5.718;2023-07-29T12:51:58;21.50;71.05
68439;SHT31;55421;51.600;5.718;2023-07-29T12:54:26;21.43;71.93
68439;SHT31;55421;51.600;5.718;2023-07-29T12:56:53;21.41;72.18
68439;SHT31;55421;51.600;5.718;2023-07-29T12:59:19;21.39;72.30
68439;SHT31;55421;51.600;5.718;2023-07-29T13:01:46;21.39;72.95
68439;SHT31;55421;51.600;5.718;2023-07-29T13:04:12;21.43;73.32
68439;SHT31;55421;51.600;5.718;2023-07-29T13:06:39;21.47;73.57
68439;SHT31;55421;51.600;5.718;2023-07-29T13:09:05;21.52;73.88
68439;SHT31;55421;51.600;5.718;2023-07-29T13:11:32;21.59;74.19
68439;SHT31;55421;51.600;5.718;2023-07-29T13:13:59;21.65;74.37
68439;SHT31;55421;51.600;5.718;2023-07-29T13:16:27;21.74;74.83
68439;SHT31;55421;51.600;5.718;2023-07-29T13:18:54;21.85;74.67
68439;SHT31;55421;51.600;5.718;2023-07-29T13:21:22;21.90;74.46
68439;SHT31;55421;51.600;5.718;2023-07-29T13:23:49;21.98;74.42
68439;SHT31;55421;51.600;5.718;2023-07-29T13:26:15;22.05;74.52
68439;SHT31;55421;51.600;5.718;2023-07-29T13:28:42;22.09;74.62
68439;SHT31;55421;51.600;5.718;2023-07-29T13:31:08;22.13;74.57
68439;SHT31;55421;51.600;5.718;2023-07-29T13:33:35;22.22;74.59
68439;SHT31;55421;51.600;5.718;2023-07-29T13:36:01;22.21;73.92
68439;SHT31;55421;51.600;5.718;2023-07-29T13:38:30;22.26;73.94
68439;SHT31;55421;51.600;5.718;2023-07-29T13:40:57;22.28;73.90
68439;SHT31;55421;51.600;5.718;2023-07-29T13:43:23;22.26;73.73
68439;SHT31;55421;51.600;5.718;2023-07-29T13:45:50;22.33;74.01
68439;SHT31;55421;51.600;5.718;2023-07-29T13:48:17;22.43;73.52
68439;SHT31;55421;51.600;5.718;2023-07-29T13:50:45;22.46;73.30
68439;SHT31;55421;51.600;5.718;2023-07-29T13:53:11;22.50;73.48
68439;SHT31;55421;51.600;5.718;2023-07-29T13:55:38;22.58;73.61
68439;SHT31;55421;51.600;5.718;2023-07-29T13:58:04;22.64;73.55
68439;SHT31;55421;51.600;5.718;2023-07-29T14:00:30;22.70;73.86
68439;SHT31;55421;51.600;5.718;2023-07-29T14:02:57;22.72;73.19
68439;SHT31;55421;51.600;5.718;2023-07-29T14:05:23;22.70;73.22
68439;SHT31;55421;51.600;5.718;2023-07-29T14:07:50;22.71;72.91
68439;SHT31;55421;51.600;5.718;2023-07-29T14:10:16;22.75;73.10
68439;SHT31;55421;51.600;5.718;2023-07-29T14:12:43;22.85;73.47
68439;SHT31;55421;51.600;5.718;2023-07-29T14:15:09;22.92;73.23
68439;SHT31;55421;51.600;5.718;2023-07-29T14:17:36;23.00;72.79
68439;SHT31;55421;51.600;5.718;2023-07-29T14:20:02;23.03;72.60
68439;SHT31;55421;51.600;5.718;2023-07-29T14:22:31;23.02;72.35
68439;SHT31;55421;51.600;5.718;2023-07-29T14:24:57;23.01;72.46
68439;SHT31;55421;51.600;5.718;2023-07-29T14:27:23;23.03;72.63
68439;SHT31;55421;51.600;5.718;2023-07-29T14:29:50;22.99;72.16
68439;SHT31;55421;51.600;5.718;2023-07-29T14:32:16;23.03;72.46
68439;SHT31;55421;51.600;5.718;2023-07-29T14:34:43;23.06;72.88
68439;SHT31;55421;51.600;5.718;2023-07-29T14:37:09;23.13;72.63
68439;SHT31;55421;51.600;5.718;2023-07-29T14:39:35;23.19;72.38
68439;SHT31;55421;51.600;5.718;2023-07-29T14:42:02;23.24;71.75
68439;SHT31;55421;51.600;5.718;2023-07-29T14:44:29;23.26;71.56
68439;SHT31;55421;51.600;5.718;2023-07-29T14:46:56;23.30;71.34
68439;SHT31;55421;51.600;5.718;2023-07-29T14:49:22;23.35;71.23
68439;SHT31;55421;51.600;5.718;2023-07-29T14:51:49;23.39;71.37
68439;SHT31;55421;51.600;5.718;2023-07-29T14:54:15;23.43;70.69
68439;SHT31;55421;51.600;5.718;2023-07-29T14:56:42;23.47;70.42
68439;SHT31;55421;51.600;5.718;2023-07-29T14:59:08;23.50;70.53
68439;SHT31;55421;51.600;5.718;2023-07-29T15:01:35;23.55;70.61
68439;SHT31;55421;51.600;5.718;2023-07-29T15:04:01;23.62;70.56
68439;SHT31;55421;51.600;5.718;2023-07-29T15:06:28;23.64;70.17
68439;SHT31;55421;51.600;5.718;2023-07-29T15:08:54;23.62;69.81
68439;SHT31;55421;51.600;5.718;2023-07-29T15:11:21;23.60;69.57
68439;SHT31;55421;51.600;5.718;2023-07-29T15:13:47;23.63;69.73
68439;SHT31;55421;51.600;5.718;2023-07-29T15:16:14;23.68;69.94
68439;SHT31;55421;51.600;5.718;2023-07-29T15:18:40;23.76;70.31
68439;SHT31;55421;51.600;5.718;2023-07-29T15:21:07;23.83;69.61
68439;SHT31;55421;51.600;5.718;2023-07-29T15:23:33;23.87;69.74
68439;SHT31;55421;51.600;5.718;2023-07-29T15:26:00;23.91;69.42
68439;SHT31;55421;51.600;5.718;2023-07-29T15:28:26;23.89;68.82
68439;SHT31;55421;51.600;5.718;2023-07-29T15:30:52;23.85;68.67
68439;SHT31;55421;51.600;5.718;2023-07-29T15:33:20;23.80;68.47
68439;SHT31;55421;51.600;5.718;2023-07-29T15:35:46;23.78;68.97
68439;SHT31;55421;51.600;5.718;2023-07-29T15:38:14;23.76;68.89
68439;SHT31;55421;51.600;5.718;2023-07-29T15:40:41;23.76;68.90
68439;SHT31;55421;51.600;5.718;2023-07-29T15:43:07;23.74;68.64
68439;SHT31;55421;51.600;5.718;2023-07-29T15:45:34;23.71;68.67
68439;SHT31;55421;51.600;5.718;2023-07-29T15:48:00;23.68;68.94
68439;SHT31;55421;51.600;5.718;2023-07-29T15:50:27;23.63;68.99
68439;SHT31;55421;51.600;5.718;2023-07-29T15:52:53;23.60;69.30
68439;SHT31;55421;51.600;5.718;2023-07-29T15:55:20;23.56;69.62
68439;SHT31;55421;51.600;5.718;2023-07-29T15:57:47;23.50;70.84